Time;durP1;ratioP1;P1;durP2;ratioP2;P2;SDS_P1;SDS_P2;PMS_P1;PMS_P2;Temp;Humidity;BMP_temperature;BMP_pressure;BME280_temperature;BME280_humidity;BME280_pressure;Samples;Min_cycle;Max_cycle;Signal;HPM_P1;HPM_P2
2021/03/31 00:01:36;;;;;;;13.98;6.43;;;;;;;12.75;58.74;101440.19;5113503;28;20077;-73
2021/03/31 00:04:02;;;;;;;11.65;6.50;;;;;;;12.70;58.75;101448.44;5113195;28;20463;-75
2021/03/31 00:06:27;;;;;;;13.57;6.45;;;;;;;12.59;59.20;101440.94;5113013;28;20032;-75
2021/03/31 00:08:53;;;;;;;14.75;6.70;;;;;;;12.48;59.61;101440.59;5111926;28;20034;-80
2021/03/31 00:11:19;;;;;;;10.63;6.63;;;;;;;12.43;60.03;101453.34;5113078;28;20076;-72
2021/03/31 00:13:45;;;;;;;14.63;7.20;;;;;;;12.42;59.86;101443.56;5113109;28;20035;-72
2021/03/31 00:16:11;;;;;;;15.18;7.47;;;;;;;12.34;60.45;101445.75;5113016;28;20039;-72
2021/03/31 00:18:36;;;;;;;15.73;7.65;;;;;;;12.35;59.92;101438.59;5113415;28;20055;-72
2021/03/31 00:21:02;;;;;;;11.90;7.85;;;;;;;12.54;58.91;101440.28;5111884;28;20458;-76
2021/03/31 00:23:29;;;;;;;11.82;6.55;;;;;;;12.50;59.50;101438.72;5113044;28;20036;-74
2021/03/31 00:25:56;;;;;;;14.38;7.45;;;;;;;12.22;60.55;101411.56;5112961;28;20028;-76
2021/03/31 00:28:22;;;;;;;10.93;7.05;;;;;;;12.32;60.87;101428.91;5095344;28;20093;-74
2021/03/31 00:30:51;;;;;;;15.25;7.30;;;;;;;12.23;61.51;101432.03;5112124;28;20032;-73
2021/03/31 00:33:17;;;;;;;12.73;7.38;;;;;;;12.01;62.19;101402.78;5112575;28;20456;-74
2021/03/31 00:35:43;;;;;;;17.05;6.90;;;;;;;11.93;61.95;101404.97;5111969;28;20063;-72
2021/03/31 00:38:09;;;;;;;13.85;7.13;;;;;;;11.99;61.92;101428.75;5112617;28;20458;-72
2021/03/31 00:40:47;;;;;;;12.77;7.28;;;;;;;11.97;61.25;101402.09;5113049;28;20039;-72
2021/03/31 00:43:13;;;;;;;14.98;7.82;;;;;;;12.06;61.55;101426.63;5112804;28;20067;-72
2021/03/31 00:45:39;;;;;;;11.68;7.32;;;;;;;12.09;61.19;101416.66;5112909;28;20431;-72
2021/03/31 00:48:04;;;;;;;13.95;7.75;;;;;;;12.00;61.99;101412.63;5111303;28;20085;-72
2021/03/31 00:50:30;;;;;;;14.32;7.50;;;;;;;11.81;62.50;101397.53;5112950;28;20436;-71
2021/03/31 00:52:58;;;;;;;13.27;7.68;;;;;;;11.84;63.16;101416.94;5111708;28;20028;-75
2021/03/31 00:55:26;;;;;;;14.35;7.93;;;;;;;11.67;63.63;101388.28;5112801;28;20115;-71
2021/03/31 00:57:52;;;;;;;12.60;8.18;;;;;;;11.72;63.80;101401.47;5111764;28;20035;-71
2021/03/31 01:00:18;;;;;;;13.57;7.45;;;;;;;11.75;63.78;101417.34;5094468;28;20051;-71
2021/03/31 01:02:44;;;;;;;13.57;7.72;;;;;;;11.63;64.58;101412.56;5113028;28;20054;-74
2021/03/31 01:05:32;;;;;;;15.13;7.93;;;;;;;11.44;64.82;101386.69;5112385;28;20028;-74
2021/03/31 01:07:58;;;;;;;12.32;7.63;;;;;;;11.41;65.19;101397.53;5111998;28;20035;-77
2021/03/31 01:10:45;;;;;;;12.27;7.45;;;;;;;11.50;65.36;101414.94;5115338;28;20458;-75
2021/03/31 01:13:56;;;;;;;13.40;7.78;;;;;;;11.52;65.05;101412.19;5116164;28;20036;-72
2021/03/31 01:16:28;;;;;;;12.65;7.22;;;;;;;11.56;64.41;101417.31;5116416;27;20050;-73
2021/03/31 01:19:25;;;;;;;18.77;7.75;;;;;;;11.52;65.05;101422.88;5114690;28;20047;-72
2021/03/31 01:22:09;;;;;;;11.98;6.95;;;;;;;11.39;65.26;101419.91;5116482;28;20042;-72
2021/03/31 01:24:43;;;;;;;14.48;7.15;;;;;;;11.32;65.23;101415.78;5116156;28;20031;-73
2021/03/31 01:27:24;;;;;;;12.70;7.20;;;;;;;11.29;65.48;101418.56;5115753;28;20431;-73
2021/03/31 01:30:20;;;;;;;13.50;7.65;;;;;;;11.33;65.71;101410.38;5116022;28;20106;-73
2021/03/31 01:33:15;;;;;;;16.08;7.57;;;;;;;11.42;65.43;101425.13;5116117;28;20032;-72
2021/03/31 01:35:41;;;;;;;13.80;7.13;;;;;;;11.33;65.94;101420.19;5116375;28;20119;-77
2021/03/31 01:38:10;;;;;;;14.75;7.30;;;;;;;10.84;66.23;101343.13;5115894;28;20040;-76
2021/03/31 01:40:41;;;;;;;14.75;8.10;;;;;;;11.19;66.11;101391.41;5114955;28;20020;-78
2021/03/31 01:43:12;;;;;;;12.40;7.25;;;;;;;11.33;66.29;101417.50;5115717;28;20031;-77
2021/03/31 01:45:40;;;;;;;16.38;8.05;;;;;;;11.22;66.18;101401.97;5116128;28;20027;-76
2021/03/31 01:48:12;;;;;;;14.15;7.95;;;;;;;11.37;66.22;101417.28;5115586;28;20044;-76
2021/03/31 01:50:39;;;;;;;17.07;8.63;;;;;;;11.46;66.19;101419.53;5116373;28;20031;-74
2021/03/31 01:53:05;;;;;;;16.83;8.35;;;;;;;11.29;67.47;101418.56;5115490;28;20248;-74
2021/03/31 01:55:32;;;;;;;15.70;8.65;;;;;;;11.18;67.86;101411.03;5114601;28;20074;-74
2021/03/31 01:57:58;;;;;;;13.18;7.88;;;;;;;11.10;68.26;101413.19;5115687;28;20024;-74
2021/03/31 02:00:25;;;;;;;14.35;8.60;;;;;;;11.03;68.42;101412.59;5113536;28;20039;-75
2021/03/31 02:02:55;;;;;;;14.93;8.18;;;;;;;11.01;68.90;101419.81;5115353;28;20031;-76
2021/03/31 02:05:25;;;;;;;16.15;7.95;;;;;;;10.97;69.01;101417.31;5113994;28;20122;-76
2021/03/31 02:07:51;;;;;;;15.98;8.70;;;;;;;10.80;69.03;101388.69;5114465;28;20385;-75
2021/03/31 02:10:19;;;;;;;11.80;7.60;;;;;;;11.02;69.05;101415.34;5096951;28;20046;-75
2021/03/31 02:12:45;;;;;;;15.25;8.25;;;;;;;11.14;69.14;101414.78;5097180;28;20096;-72
2021/03/31 02:15:20;;;;;;;13.07;8.60;;;;;;;10.63;69.35;101349.41;5113774;28;20044;-75
2021/03/31 02:17:47;;;;;;;14.45;8.27;;;;;;;10.47;69.80;101345.63;5115123;28;20055;-73
2021/03/31 02:20:19;;;;;;;16.23;8.52;;;;;;;10.65;69.65;101390.22;5114360;28;20039;-71
2021/03/31 02:22:46;;;;;;;13.88;8.18;;;;;;;10.67;69.31;101391.00;5113411;28;20032;-70
2021/03/31 02:25:13;;;;;;;16.70;7.90;;;;;;;10.81;69.68;101412.66;5114891;28;20058;-72
2021/03/31 02:27:39;;;;;;;15.68;8.23;;;;;;;10.71;70.00;101411.31;5115092;28;20485;-72
2021/03/31 02:30:08;;;;;;;18.27;8.70;;;;;;;10.73;70.17;101417.44;5117071;28;20435;-71
2021/03/31 02:32:35;;;;;;;14.45;8.38;;;;;;;10.92;69.05;101414.00;5122788;28;20118;-70
2021/03/31 02:35:03;;;;;;;16.27;8.90;;;;;;;10.80;69.48;101416.22;5114794;28;20043;-71
2021/03/31 02:37:30;;;;;;;15.25;8.23;;;;;;;10.52;69.31;101362.34;5114983;28;20055;-71
2021/03/31 02:39:57;;;;;;;16.40;8.80;;;;;;;10.89;69.15;101417.66;5114511;28;20034;-70
2021/03/31 02:42:26;;;;;;;15.45;7.82;;;;;;;10.91;68.51;101406.94;5114237;28;20044;-71
2021/03/31 02:44:56;;;;;;;17.55;9.10;;;;;;;10.95;68.44;101417.41;5114336;28;20036;-70
2021/03/31 02:47:25;;;;;;;19.42;8.98;;;;;;;10.71;68.60;101376.63;5114483;28;20032;-70
2021/03/31 02:49:53;;;;;;;14.32;8.82;;;;;;;10.84;68.43;101404.50;5113087;28;20031;-70
2021/03/31 02:52:22;;;;;;;12.98;8.25;;;;;;;10.71;68.70;101383.72;5114086;28;20031;-70
2021/03/31 02:54:50;;;;;;;16.00;9.05;;;;;;;10.81;68.22;101409.13;5114296;28;20069;-70
2021/03/31 02:57:17;;;;;;;15.63;9.07;;;;;;;10.63;68.46;101392.09;5114263;28;20031;-72
2021/03/31 02:59:44;;;;;;;17.70;8.95;;;;;;;10.70;68.83;101398.88;5114072;28;20027;-71
2021/03/31 03:02:10;;;;;;;13.70;8.95;;;;;;;10.73;68.94;101403.25;5113757;28;20043;-72
2021/03/31 03:04:39;;;;;;;14.60;9.00;;;;;;;10.79;69.25;101394.94;5114613;27;20046;-72
2021/03/31 03:07:06;;;;;;;12.82;8.43;;;;;;;10.67;69.36;101380.34;5112527;28;20023;-76
2021/03/31 03:09:33;;;;;;;13.95;8.55;;;;;;;10.58;69.54;101378.94;5114165;28;20038;-72
2021/03/31 03:11:59;;;;;;;15.05;8.27;;;;;;;10.66;69.70;101402.63;5114255;28;20028;-73
2021/03/31 03:14:25;;;;;;;17.20;9.07;;;;;;;10.62;70.15;101405.50;5114039;28;20035;-71
2021/03/31 03:16:51;;;;;;;16.25;9.38;;;;;;;10.36;70.31;101355.91;5113961;28;20462;-73
2021/03/31 03:19:18;;;;;;;15.57;9.50;;;;;;;10.43;70.43;101384.06;5113426;28;20160;-74
2021/03/31 03:21:44;;;;;;;16.23;9.20;;;;;;;10.72;69.96;101397.03;5113067;28;20035;-71
2021/03/31 03:24:12;;;;;;;17.88;9.48;;;;;;;10.73;69.44;101398.78;5112537;28;20359;-71
2021/03/31 03:26:39;;;;;;;16.80;9.95;;;;;;;10.78;69.57;101402.09;5114007;28;20020;-71
2021/03/31 03:29:09;;;;;;;17.02;9.63;;;;;;;10.72;69.81;101397.03;5112718;28;20390;-71
2021/03/31 03:31:36;;;;;;;17.13;9.25;;;;;;;10.78;69.70;101398.56;5113739;28;20028;-69
2021/03/31 03:34:09;;;;;;;15.23;9.60;;;;;;;10.80;69.48;101394.00;5112615;28;20031;-71
2021/03/31 03:36:39;;;;;;;15.30;10.43;;;;;;;10.68;69.82;101371.41;5112761;28;20035;-72
2021/03/31 03:39:05;;;;;;;17.77;10.05;;;;;;;10.65;70.07;101374.22;5113866;28;20118;-70
2021/03/31 03:41:31;;;;;;;22.45;10.90;;;;;;;10.24;71.26;101347.47;5112304;28;20028;-73
2021/03/31 03:43:56;;;;;;;17.90;10.30;;;;;;;10.56;71.17;101395.94;5112138;28;20039;-71
2021/03/31 03:46:22;;;;;;;18.58;10.45;;;;;;;10.60;71.03;101385.06;5113324;28;20035;-71
2021/03/31 03:48:48;;;;;;;15.73;10.20;;;;;;;10.54;70.95;101389.81;5113650;28;20024;-73
2021/03/31 03:51:13;;;;;;;20.70;11.00;;;;;;;10.52;71.28;101386.34;5112030;28;20032;-74
2021/03/31 03:53:39;;;;;;;17.45;10.50;;;;;;;9.95;71.75;101318.44;5112319;28;20035;-75
2021/03/31 03:56:11;;;;;;;17.52;10.18;;;;;;;10.17;72.35;101361.97;5112285;28;20034;-74
2021/03/31 03:58:38;;;;;;;20.08;9.85;;;;;;;10.11;72.31;101356.84;5112189;28;20028;-73
2021/03/31 04:01:03;;;;;;;15.45;9.95;;;;;;;10.14;72.31;101367.41;5112101;28;20031;-73
2021/03/31 04:03:29;;;;;;;18.05;10.90;;;;;;;10.12;73.22;101390.59;5113219;28;20035;-73
2021/03/31 04:05:54;;;;;;;18.40;11.13;;;;;;;10.09;73.01;101377.38;5113306;28;20038;-72
2021/03/31 04:08:20;;;;;;;17.35;11.20;;;;;;;10.17;72.89;101391.28;5111919;28;20035;-72
2021/03/31 04:10:52;;;;;;;17.08;10.32;;;;;;;10.01;73.17;101372.34;5112072;28;20414;-71
2021/03/31 04:13:20;;;;;;;21.30;11.70;;;;;;;10.05;73.27;101373.13;5112755;28;20478;-70
2021/03/31 04:15:50;;;;;;;18.70;11.25;;;;;;;10.05;72.99;101383.78;5112110;28;20061;-75
2021/03/31 04:18:16;;;;;;;19.05;11.75;;;;;;;9.92;73.99;101382.50;5112813;28;20096;-75
2021/03/31 04:20:44;;;;;;;18.80;11.77;;;;;;;9.89;74.29;101386.19;5095193;28;20027;-73
2021/03/31 04:23:11;;;;;;;18.50;11.38;;;;;;;9.78;74.59;101377.75;5111878;28;20035;-74
2021/03/31 04:25:36;;;;;;;21.60;11.32;;;;;;;9.76;74.75;101376.94;5112104;28;20040;-72
2021/03/31 04:28:06;;;;;;;21.42;11.13;;;;;;;9.64;74.46;101362.28;5111849;28;20093;-70
2021/03/31 04:30:32;;;;;;;20.20;11.35;;;;;;;9.77;74.91;101394.66;5112879;28;20097;-69
2021/03/31 04:32:59;;;;;;;22.75;12.02;;;;;;;9.61;74.68;101362.41;5111849;28;20541;-73
2021/03/31 04:35:25;;;;;;;24.17;11.13;;;;;;;9.65;75.13;101396.00;5111485;28;20043;-72
2021/03/31 04:37:50;;;;;;;25.08;11.30;;;;;;;9.69;74.74;101391.41;5077945;28;20032;-72
2021/03/31 04:40:19;;;;;;;20.40;10.88;;;;;;;9.68;74.29;101365.72;5112736;28;20035;-73
2021/03/31 04:42:44;;;;;;;19.90;9.93;;;;;;;10.02;72.97;101384.75;5112093;28;20023;-71
2021/03/31 04:45:12;;;;;;;19.92;10.52;;;;;;;10.04;72.33;101368.72;5113924;28;20043;-71
2021/03/31 04:47:38;;;;;;;20.50;10.43;;;;;;;9.82;72.72;101366.03;5117124;28;20032;-71
2021/03/31 04:50:09;;;;;;;17.38;10.80;;;;;;;10.02;72.02;101381.22;5098752;28;20035;-71
2021/03/31 04:52:35;;;;;;;19.00;10.15;;;;;;;9.98;71.96;101368.97;5116431;28;20036;-71
2021/03/31 04:55:01;;;;;;;18.30;10.20;;;;;;;10.09;71.96;101385.38;5115472;28;20485;-74
2021/03/31 04:57:26;;;;;;;18.65;10.07;;;;;;;9.88;72.83;101389.78;5116100;28;20537;-73
2021/03/31 04:59:52;;;;;;;16.42;10.48;;;;;;;9.92;72.98;101394.03;5116757;28;20031;-74
2021/03/31 05:02:17;;;;;;;19.90;10.85;;;;;;;9.99;72.54;101400.00;5116476;28;20028;-74
2021/03/31 05:04:43;;;;;;;19.27;9.85;;;;;;;9.84;72.61;101368.63;5116531;28;20390;-74
2021/03/31 05:07:08;;;;;;;22.15;11.10;;;;;;;9.83;73.51;101401.53;5116800;28;20065;-73
2021/03/31 05:09:34;;;;;;;17.75;10.80;;;;;;;9.89;73.40;101404.84;5114981;28;20127;-72
2021/03/31 05:12:01;;;;;;;19.55;10.55;;;;;;;10.03;73.05;101406.94;5115100;28;20055;-71
2021/03/31 05:14:27;;;;;;;21.00;11.27;;;;;;;10.08;72.62;101401.44;5115509;28;20092;-72
2021/03/31 05:16:52;;;;;;;17.20;10.23;;;;;;;10.18;71.58;101379.69;5081448;28;20126;-72
2021/03/31 05:19:17;;;;;;;16.17;10.20;;;;;;;10.44;71.33;101402.66;5114660;28;20486;-71
2021/03/31 05:21:44;;;;;;;22.88;10.65;;;;;;;10.51;71.24;101406.78;5114575;28;20039;-71
2021/03/31 05:24:10;;;;;;;25.38;11.75;;;;;;;10.47;70.18;101386.53;5116343;28;20036;-71
2021/03/31 05:26:35;;;;;;;21.10;11.85;;;;;;;10.62;69.35;101408.16;5115889;28;20035;-73
2021/03/31 05:29:01;;;;;;;28.38;11.68;;;;;;;10.85;69.06;101408.03;5114870;28;20367;-71
2021/03/31 05:31:26;;;;;;;22.13;11.20;;;;;;;10.79;69.22;101401.16;5115607;28;20040;-71
2021/03/31 05:33:52;;;;;;;19.67;12.55;;;;;;;10.88;69.29;101403.44;5114688;28;20032;-72
2021/03/31 05:36:18;;;;;;;30.45;15.85;;;;;;;10.86;69.41;101415.13;5115419;28;20047;-76
2021/03/31 05:38:43;;;;;;;32.65;19.73;;;;;;;10.85;69.61;101408.91;5114620;28;20039;-71
2021/03/31 05:41:09;;;;;;;40.65;28.30;;;;;;;11.06;68.21;101407.09;5115505;28;20047;-75
2021/03/31 05:43:35;;;;;;;35.13;27.80;;;;;;;10.96;68.35;101388.91;5114255;28;20035;-74
2021/03/31 05:46:01;;;;;;;42.33;30.02;;;;;;;10.95;67.87;101376.47;5116549;28;20028;-73
2021/03/31 05:48:26;;;;;;;36.30;28.67;;;;;;;10.84;68.70;101399.19;5123285;28;20031;-74
2021/03/31 05:50:52;;;;;;;39.70;24.63;;;;;;;10.84;68.45;101396.50;5115468;28;20056;-74
2021/03/31 05:53:18;;;;;;;34.25;22.35;;;;;;;10.88;68.63;101381.22;5113891;28;20027;-74
2021/03/31 05:55:43;;;;;;;33.70;20.67;;;;;;;11.19;68.00;101407.41;5114258;28;20173;-77
2021/03/31 05:58:10;;;;;;;33.65;20.15;;;;;;;11.16;67.88;101378.19;5113058;28;20059;-78
2021/03/31 06:00:36;;;;;;;30.85;21.00;;;;;;;11.18;68.00;101400.34;5111309;28;20035;-72
2021/03/31 06:03:06;;;;;;;37.40;22.05;;;;;;;11.26;67.68;101403.56;5095420;28;20122;-75
2021/03/31 06:05:32;;;;;;;31.27;21.45;;;;;;;11.23;67.69;101390.34;5114758;28;20151;-75
2021/03/31 06:07:58;;;;;;;35.78;22.73;;;;;;;11.27;67.86;101388.41;5096334;28;20482;-75
2021/03/31 06:10:29;;;;;;;33.05;18.92;;;;;;;11.50;67.67;101400.72;5080013;28;20039;-74
2021/03/31 06:13:01;;;;;;;27.10;16.88;;;;;;;11.53;67.60;101390.75;5096349;28;20089;-72
2021/03/31 06:15:34;;;;;;;24.90;14.13;;;;;;;11.60;67.15;101394.88;5097110;28;20035;-74
2021/03/31 06:18:07;;;;;;;22.45;14.25;;;;;;;11.70;66.51;101389.97;5113985;28;20482;-74
2021/03/31 06:20:41;;;;;;;21.67;14.35;;;;;;;11.86;65.87;101385.66;5095700;28;20135;-75
2021/03/31 06:25:44;;;;;;;25.05;15.82;;;;;;;12.01;65.16;101394.78;5114008;28;20031;-74
2021/03/31 06:28:10;;;;;;;22.50;15.47;;;;;;;11.50;65.52;101325.91;5096913;28;20039;-76
2021/03/31 06:30:35;;;;;;;22.45;13.73;;;;;;;11.88;65.54;101382.94;5114128;28;20622;-73
2021/03/31 06:33:01;;;;;;;26.60;14.77;;;;;;;11.81;65.89;101384.16;5095471;28;20470;-75
2021/03/31 06:35:28;;;;;;;25.38;14.82;;;;;;;11.83;65.59;101385.81;5113545;28;20035;-76
2021/03/31 06:38:08;;;;;;;25.23;14.63;;;;;;;11.53;65.80;101345.31;5095831;28;20038;-80
2021/03/31 06:40:45;;;;;;;24.00;15.05;;;;;;;11.90;65.71;101391.75;5095808;28;20035;-73
2021/03/31 06:45:51;;;;;;;23.77;13.88;;;;;;;12.00;64.91;101388.56;5116253;28;20359;-76
2021/03/31 06:48:17;;;;;;;24.90;14.40;;;;;;;11.97;64.67;101366.44;5096691;28;20131;-72
2021/03/31 06:50:42;;;;;;;21.83;14.35;;;;;;;12.30;63.49;101382.66;5095305;28;20122;-72
2021/03/31 06:53:08;;;;;;;20.73;13.65;;;;;;;12.12;63.87;101364.81;5095320;28;20428;-73
2021/03/31 06:55:33;;;;;;;25.17;13.88;;;;;;;12.41;63.56;101377.63;5095224;28;20047;-73
2021/03/31 06:58:06;;;;;;;30.08;15.18;;;;;;;12.27;64.29;101382.81;5095149;28;20028;-72
2021/03/31 07:00:35;;;;;;;25.00;13.82;;;;;;;12.33;63.99;101382.50;5095039;28;20509;-72
2021/03/31 07:03:04;;;;;;;21.52;13.70;;;;;;;12.47;63.48;101385.34;5113554;28;20067;-76
2021/03/31 07:05:34;;;;;;;21.67;14.30;;;;;;;12.46;63.18;101374.75;5113001;28;20032;-79
2021/03/31 07:08:05;;;;;;;24.42;14.73;;;;;;;12.28;62.95;101339.06;5112796;28;20035;-74
2021/03/31 07:10:45;;;;;;;24.20;15.77;;;;;;;12.76;62.86;101380.34;5113407;28;20035;-75
2021/03/31 07:13:10;;;;;;;21.80;14.35;;;;;;;12.74;62.96;101382.22;5113790;28;20039;-75
2021/03/31 07:15:36;;;;;;;24.27;15.48;;;;;;;12.86;62.54;101385.13;5113167;28;20040;-75
2021/03/31 07:18:02;;;;;;;22.45;14.35;;;;;;;13.05;61.62;101382.38;5112811;28;20142;-77
2021/03/31 07:20:31;;;;;;;20.38;14.07;;;;;;;13.14;61.08;101376.53;5113071;28;20086;-78
2021/03/31 07:23:00;;;;;;;23.75;14.40;;;;;;;13.24;60.92;101354.63;5095028;28;20029;-76
2021/03/31 07:25:25;;;;;;;19.90;13.38;;;;;;;13.14;60.46;101357.78;5113351;28;20119;-76
2021/03/31 07:27:54;;;;;;;24.83;15.02;;;;;;;13.25;60.29;101372.44;5112520;28;20119;-74
2021/03/31 07:30:24;;;;;;;20.52;13.98;;;;;;;13.40;59.69;101366.25;5113089;28;20071;-75
2021/03/31 07:33:12;;;;;;;25.17;14.07;;;;;;;13.40;59.53;101361.75;5094642;28;20030;-73
2021/03/31 07:35:39;;;;;;;25.73;13.95;;;;;;;13.57;58.57;101359.97;5113024;28;20031;-75
2021/03/31 07:38:05;;;;;;;21.48;14.27;;;;;;;13.55;58.82;101343.09;5113123;28;20031;-76
2021/03/31 07:40:34;;;;;;;22.70;14.02;;;;;;;13.83;57.54;101369.25;5094560;28;20023;-75
2021/03/31 07:43:12;;;;;;;25.90;13.82;;;;;;;13.86;56.41;101364.56;5113147;28;20027;-77
2021/03/31 07:45:44;;;;;;;23.98;14.32;;;;;;;13.90;57.59;101368.81;5112450;28;20055;-72
2021/03/31 07:48:12;;;;;;;22.67;14.20;;;;;;;13.69;57.48;101306.53;5112755;28;20462;-70
2021/03/31 07:50:38;;;;;;;22.02;13.27;;;;;;;14.22;56.25;101366.97;5112714;28;20047;-71
2021/03/31 07:53:06;;;;;;;21.52;13.07;;;;;;;14.32;56.40;101362.81;5094565;28;20028;-78
2021/03/31 07:55:50;;;;;;;17.88;12.25;;;;;;;14.42;55.19;101362.28;5112079;28;20027;-73
2021/03/31 07:58:18;;;;;;;20.05;14.52;;;;;;;14.35;55.99;101345.66;5112549;28;20110;-74
2021/03/31 08:00:54;;;;;;;21.75;14.98;;;;;;;14.63;55.99;101363.72;5094160;28;20087;-71
2021/03/31 08:03:27;;;;;;;23.60;15.18;;;;;;;14.76;55.23;101366.53;5115915;28;20494;-73
2021/03/31 08:06:14;;;;;;;23.23;15.45;;;;;;;14.67;55.39;101359.91;5112463;28;20036;-74
2021/03/31 08:08:46;;;;;;;25.63;15.52;;;;;;;14.79;55.34;101372.59;5112186;28;20521;-74
2021/03/31 08:11:40;;;;;;;22.63;15.30;;;;;;;14.93;54.02;101371.75;5112682;28;20038;-77
2021/03/31 08:14:32;;;;;;;23.08;15.75;;;;;;;14.98;53.87;101363.44;5112508;28;20050;-70
2021/03/31 08:17:00;;;;;;;23.10;15.85;;;;;;;14.80;54.67;101342.09;5100980;28;20424;-75
2021/03/31 08:19:31;;;;;;;18.92;13.55;;;;;;;14.86;53.62;101339.03;5115175;28;20047;-77
2021/03/31 08:22:18;;;;;;;20.65;13.57;;;;;;;15.06;52.40;101340.50;5113402;28;20410;-76
2021/03/31 08:24:46;;;;;;;20.63;13.30;;;;;;;15.18;52.57;101357.69;5114200;28;20035;-76
2021/03/31 08:27:13;;;;;;;21.70;13.10;;;;;;;15.24;52.16;101356.44;5080057;28;20024;-75
2021/03/31 08:29:42;;;;;;;22.27;14.20;;;;;;;15.32;51.98;101355.00;5110553;28;20080;-75
2021/03/31 08:32:09;;;;;;;22.50;14.60;;;;;;;15.37;51.50;101346.66;5116205;28;20466;-75
2021/03/31 08:34:35;;;;;;;19.63;13.02;;;;;;;15.53;51.00;101347.41;5115981;28;20525;-76
2021/03/31 08:37:04;;;;;;;22.17;13.50;;;;;;;15.53;50.68;101335.78;5115987;28;20035;-70
2021/03/31 08:39:30;;;;;;;22.48;13.10;;;;;;;15.44;51.02;101316.63;5115787;28;20072;-72
2021/03/31 08:41:57;;;;;;;22.75;13.13;;;;;;;15.68;50.55;101324.94;5116026;28;20027;-72
2021/03/31 08:44:38;;;;;;;18.70;11.70;;;;;;;15.78;49.54;101330.59;5077302;28;20149;-71
2021/03/31 08:47:25;;;;;;;20.33;12.20;;;;;;;15.75;50.04;101325.44;5115238;28;20146;-74
2021/03/31 08:49:58;;;;;;;23.67;12.13;;;;;;;15.82;49.62;101326.72;5115772;28;20023;-72
2021/03/31 08:52:25;;;;;;;16.17;10.95;;;;;;;15.93;49.75;101326.91;5094391;28;20115;-72
2021/03/31 08:54:53;;;;;;;20.08;11.60;;;;;;;15.76;48.61;101262.59;5113542;28;20040;-71
2021/03/31 08:57:25;;;;;;;21.65;11.30;;;;;;;16.20;48.67;101316.13;5096393;28;20044;-72
2021/03/31 08:59:58;;;;;;;20.48;11.23;;;;;;;16.11;48.43;101299.72;5116478;28;20125;-73
2021/03/31 09:02:27;;;;;;;17.42;11.00;;;;;;;16.28;47.85;101299.47;5134219;28;20039;-70
2021/03/31 09:04:54;;;;;;;21.77;11.45;;;;;;;16.41;47.88;101313.84;5127470;28;20023;-75
2021/03/31 09:07:20;;;;;;;23.00;11.82;;;;;;;16.44;48.27;101318.16;5097050;28;20040;-75
2021/03/31 09:09:47;;;;;;;16.50;12.00;;;;;;;16.47;47.76;101307.16;5115394;28;20050;-73
2021/03/31 09:12:17;;;;;;;22.08;11.57;;;;;;;16.42;47.82;101288.66;5093958;28;20115;-75
2021/03/31 09:14:46;;;;;;;19.80;10.80;;;;;;;16.67;47.93;101308.50;5093949;28;20035;-72
2021/03/31 09:17:20;;;;;;;18.00;11.70;;;;;;;16.54;47.52;101290.50;5098661;28;20080;-73
2021/03/31 09:19:49;;;;;;;18.85;11.63;;;;;;;16.69;48.08;101307.44;5115159;28;20039;-76
2021/03/31 09:22:17;;;;;;;18.85;11.15;;;;;;;16.29;48.06;101233.91;5115180;28;20106;-75
2021/03/31 09:24:48;;;;;;;20.25;12.23;;;;;;;16.83;47.87;101295.72;5096820;28;20031;-76
2021/03/31 09:27:17;;;;;;;19.63;12.02;;;;;;;16.85;47.35;101291.09;5098714;28;20035;-68
2021/03/31 09:29:44;;;;;;;23.75;11.73;;;;;;;16.95;47.46;101285.91;5114580;27;20035;-72
2021/03/31 09:32:17;;;;;;;22.35;11.38;;;;;;;16.80;47.42;101269.00;5114829;28;20046;-73
2021/03/31 09:34:44;;;;;;;19.05;10.30;;;;;;;16.88;46.74;101263.91;5114849;28;20424;-72
2021/03/31 09:37:18;;;;;;;19.08;11.48;;;;;;;17.15;46.93;101280.81;5097846;28;20405;-72
2021/03/31 09:39:54;;;;;;;18.23;10.68;;;;;;;17.06;46.96;101257.22;5114472;28;20039;-71
2021/03/31 09:42:34;;;;;;;17.73;11.55;;;;;;;17.30;46.87;101275.31;5115036;28;20393;-72
2021/03/31 09:45:03;;;;;;;17.20;10.68;;;;;;;17.31;46.78;101277.91;5114820;28;20185;-71
2021/03/31 09:47:29;;;;;;;22.25;10.25;;;;;;;17.33;47.01;101278.66;5115035;28;20490;-72
2021/03/31 09:49:57;;;;;;;16.10;9.18;;;;;;;17.30;46.76;101275.31;5114558;28;20039;-73
2021/03/31 09:52:31;;;;;;;15.45;9.05;;;;;;;17.19;47.27;101248.28;5096758;28;20024;-72
2021/03/31 09:55:03;;;;;;;16.08;9.95;;;;;;;17.34;46.71;101245.31;5114744;28;20101;-73
2021/03/31 09:57:29;;;;;;;18.53;9.53;;;;;;;17.53;46.22;101252.94;5096571;28;20108;-76
2021/03/31 10:00:00;;;;;;;18.02;10.63;;;;;;;17.53;46.23;101243.97;5118131;28;20073;-79
2021/03/31 10:02:25;;;;;;;16.67;9.55;;;;;;;17.65;45.89;101260.09;5114377;28;20051;-78
2021/03/31 10:04:51;;;;;;;18.95;9.82;;;;;;;17.75;45.60;101249.53;5096037;28;20051;-79
2021/03/31 10:07:19;;;;;;;19.10;9.15;;;;;;;17.66;45.90;101224.09;5114329;28;20031;-78
2021/03/31 10:09:47;;;;;;;16.15;8.65;;;;;;;17.77;45.84;101231.41;5114434;28;20177;-79
2021/03/31 10:12:25;;;;;;;17.65;9.13;;;;;;;17.70;45.96;101212.09;5114738;28;20027;-76
2021/03/31 10:14:52;;;;;;;18.25;9.07;;;;;;;18.02;45.83;101241.19;5114321;28;20054;-76
2021/03/31 10:17:21;;;;;;;17.45;9.10;;;;;;;18.00;45.66;101237.75;5092429;28;20071;-78
2021/03/31 10:19:47;;;;;;;18.35;8.98;;;;;;;17.92;45.55;101210.50;5102540;28;20028;-82
2021/03/31 10:22:14;;;;;;;17.90;9.00;;;;;;;17.96;45.87;101237.16;5094900;28;20036;-78
2021/03/31 10:24:42;;;;;;;15.95;9.32;;;;;;;17.92;46.39;101218.59;5092200;28;20181;-75
2021/03/31 10:27:09;;;;;;;17.40;9.30;;;;;;;18.17;45.62;101221.16;5113665;28;20097;-75
2021/03/31 10:29:43;;;;;;;14.73;9.52;;;;;;;18.20;45.29;101218.19;5114305;28;20059;-75
2021/03/31 10:32:08;;;;;;;15.23;8.93;;;;;;;18.26;45.62;101220.44;5114003;28;20036;-74
2021/03/31 10:34:42;;;;;;;14.02;9.13;;;;;;;18.10;45.66;101174.00;5112721;28;20038;-80
2021/03/31 10:53:47;;;;;;;13.90;8.82;;;;;;;18.71;46.10;101181.84;5113480;28;20062;-78
2021/03/31 10:56:13;;;;;;;14.25;8.52;;;;;;;18.56;45.99;101159.59;5116977;28;20386;-76
2021/03/31 10:58:42;;;;;;;15.32;9.07;;;;;;;18.67;45.40;101161.47;5114647;28;20043;-75
2021/03/31 11:01:09;;;;;;;14.90;8.90;;;;;;;18.71;45.59;101153.00;5113376;28;20035;-76
2021/03/31 11:03:34;;;;;;;17.85;10.00;;;;;;;18.88;45.00;101171.41;5113820;28;20065;-78
2021/03/31 11:06:00;;;;;;;12.75;9.57;;;;;;;18.87;45.30;101158.03;5112523;28;20027;-76
2021/03/31 11:08:25;;;;;;;14.07;9.38;;;;;;;18.92;45.08;101160.38;5113288;28;20469;-74
2021/03/31 11:10:51;;;;;;;17.08;8.93;;;;;;;18.97;45.18;101163.56;5077409;28;20127;-74
2021/03/31 11:13:18;;;;;;;11.07;7.70;;;;;;;19.05;45.08;101161.09;5113074;28;20039;-75
2021/03/31 11:15:44;;;;;;;12.38;8.23;;;;;;;19.12;45.02;101157.78;5112898;28;20039;-79
2021/03/31 11:26:21;;;;;;;11.73;7.50;;;;;;;19.24;44.87;101139.69;5105938;28;20046;-74
2021/03/31 11:28:46;;;;;;;14.13;7.70;;;;;;;19.28;44.71;101141.13;5094249;28;20035;-73
2021/03/31 11:31:12;;;;;;;12.05;7.57;;;;;;;19.35;44.45;101131.53;5074629;28;20024;-72
2021/03/31 11:33:37;;;;;;;12.77;7.95;;;;;;;19.30;44.53;101131.06;5092960;28;20032;-76
2021/03/31 11:36:05;;;;;;;13.52;7.72;;;;;;;19.32;44.67;101134.50;5102980;28;20035;-75
2021/03/31 11:38:30;;;;;;;14.40;8.82;;;;;;;19.39;43.89;101138.38;5074037;28;20113;-76
2021/03/31 11:40:56;;;;;;;16.60;8.50;;;;;;;19.30;44.08;101122.06;5110300;28;20115;-76
2021/03/31 11:43:21;;;;;;;12.07;7.85;;;;;;;19.25;44.12;101119.75;5112463;28;20059;-78
2021/03/31 11:45:47;;;;;;;11.48;7.65;;;;;;;19.26;44.41;101115.19;5112317;28;20044;-75
2021/03/31 11:48:14;;;;;;;12.25;7.47;;;;;;;19.27;44.79;101115.06;5112468;28;20050;-73
2021/03/31 11:50:40;;;;;;;16.00;7.97;;;;;;;19.21;44.67;101102.06;5091173;28;20097;-73
2021/03/31 11:53:05;;;;;;;14.68;8.10;;;;;;;19.44;44.21;101114.53;5111513;28;20031;-74